Time;durP1;ratioP1;P1;durP2;ratioP2;P2;SDS_P1;SDS_P2;PMS_P1;PMS_P2;Temp;Humidity;BMP_temperature;BMP_pressure;BME280_temperature;BME280_humidity;BME280_pressure;Samples;Min_cycle;Max_cycle;Signal;HPM_P1;HPM_P2
2021/09/18 00:02:31;;;;;;;;;17.50;16.75;;;;;16.66;69.17;100957.84;4879219;29;10526;-69
2021/09/18 00:05:26;;;;;;;;;43.50;37.25;;;;;16.66;68.79;100957.84;4859955;29;10500;-69
2021/09/18 00:08:14;;;;;;;;;41.25;36.25;;;;;16.63;68.38;100961.34;4861239;29;10605;-70
2021/09/18 00:10:42;;;;;;;;;37.50;34.00;;;;;16.52;68.23;100961.13;4860809;29;10709;-69
2021/09/18 00:13:37;;;;;;;;;46.75;39.50;;;;;16.48;68.10;100963.00;4859790;29;10368;-70
2021/09/18 00:16:33;;;;;;;;;36.50;34.00;;;;;16.51;67.89;100972.66;4867981;29;10862;-69
2021/09/18 00:19:29;;;;;;;;;36.75;34.50;;;;;16.47;68.03;100966.19;4890439;29;10518;-69
2021/09/18 00:22:24;;;;;;;;;32.75;32.00;;;;;16.41;68.22;100968.47;4878092;29;10578;-69
2021/09/18 00:25:20;;;;;;;;;25.25;24.75;;;;;16.38;68.83;100964.41;4877639;29;10510;-69
2021/09/18 00:28:15;;;;;;;;;31.25;31.25;;;;;16.38;68.76;100963.59;4879191;29;10432;-70
2021/09/18 00:31:11;;;;;;;;;30.00;30.00;;;;;16.33;69.40;100964.69;4879331;29;10940;-70
2021/09/18 00:34:15;;;;;;;;;30.75;30.50;;;;;16.28;69.87;100973.34;4879194;29;10188;-70
2021/09/18 00:37:11;;;;;;;;;27.25;26.50;;;;;16.20;68.94;100963.19;4878157;29;9790;-70
2021/09/18 00:40:07;;;;;;;;;28.00;26.75;;;;;16.12;68.53;100965.00;4877957;29;10292;-70
2021/09/18 00:43:03;;;;;;;;;31.25;31.00;;;;;16.13;67.53;100960.22;4878672;29;11252;-70
2021/09/18 00:45:58;;;;;;;;;29.25;29.25;;;;;16.05;67.70;100953.66;4877948;29;10274;-70
2021/09/18 00:48:54;;;;;;;;;27.50;27.25;;;;;16.00;67.73;100950.31;4859961;29;10119;-70
2021/09/18 00:52:00;;;;;;;;;28.50;27.50;;;;;15.92;67.96;100945.75;4875685;29;10221;-69
2021/09/18 00:54:56;;;;;;;;;27.25;27.25;;;;;15.89;68.10;100936.13;4877864;29;11082;-69
2021/09/18 00:57:52;;;;;;;;;29.50;26.50;;;;;15.86;67.66;100950.78;4877998;29;10567;-69
2021/09/18 01:00:39;;;;;;;;;31.25;30.75;;;;;15.84;67.39;100947.56;4877745;29;10980;-69
2021/09/18 01:03:44;;;;;;;;;28.75;26.25;;;;;15.81;67.80;100942.69;4884587;29;10856;-69
2021/09/18 01:06:40;;;;;;;;;28.75;28.50;;;;;15.72;67.62;100942.88;4896734;29;10180;-70
2021/09/18 01:09:36;;;;;;;;;30.25;30.25;;;;;15.65;66.87;100953.84;4896642;29;10406;-69
2021/09/18 01:12:32;;;;;;;;;36.00;34.00;;;;;15.50;66.95;100949.03;4896217;29;10449;-69
2021/09/18 01:15:28;;;;;;;;;30.25;29.75;;;;;15.43;67.36;100954.44;4877121;29;10615;-69
2021/09/18 01:18:24;;;;;;;;;36.50;34.25;;;;;15.45;67.72;100943.72;4889656;29;10494;-69
2021/09/18 01:21:20;;;;;;;;;32.25;32.25;;;;;15.41;67.87;100942.81;4877848;29;10535;-69
2021/09/18 01:24:16;;;;;;;;;25.75;25.75;;;;;15.35;67.93;100947.03;4877406;29;10620;-69
2021/09/18 01:27:12;;;;;;;;;26.50;26.50;;;;;15.39;67.82;100937.59;4879417;29;10423;-69
2021/09/18 01:30:08;;;;;;;;;24.25;24.25;;;;;15.30;68.49;100934.97;4884019;29;10406;-69
2021/09/18 01:33:06;;;;;;;;;29.25;29.25;;;;;15.36;68.61;100927.19;4897056;29;10579;-68
2021/09/18 01:36:02;;;;;;;;;24.25;24.25;;;;;15.38;69.50;100937.97;4883061;29;10455;-69
2021/09/18 01:38:58;;;;;;;;;24.00;23.25;;;;;15.49;69.02;100927.91;4886993;29;10468;-69
2021/09/18 01:41:53;;;;;;;;;23.50;23.50;;;;;15.51;69.10;100928.38;4885875;29;10193;-69
2021/09/18 01:44:41;;;;;;;;;17.00;17.00;;;;;15.48;69.12;100918.72;4890404;29;10008;-69
2021/09/18 01:47:47;;;;;;;;;20.25;20.25;;;;;15.51;68.95;100939.50;4886077;29;10079;-69
2021/09/18 01:53:41;;;;;;;;;23.25;22.25;;;;;15.60;69.09;100926.19;4886742;29;10166;-69
2021/09/18 01:56:36;;;;;;;;;18.75;18.75;;;;;15.61;69.20;100922.28;4886331;29;10146;-69
2021/09/18 01:59:32;;;;;;;;;22.00;20.50;;;;;15.67;69.05;100922.81;4888027;29;10104;-69
2021/09/18 02:02:27;;;;;;;;;19.00;19.00;;;;;15.61;69.39;100929.81;4888698;29;9972;-69
2021/09/18 02:05:25;;;;;;;;;23.25;23.25;;;;;15.55;69.58;100921.69;4887774;29;10038;-69
2021/09/18 02:08:22;;;;;;;;;18.50;18.50;;;;;15.55;69.46;100915.31;4887085;29;10039;-69
2021/09/18 02:11:17;;;;;;;;;18.25;18.25;;;;;15.56;69.58;100920.56;4887069;29;9939;-69
2021/09/18 02:14:13;;;;;;;;;17.25;17.25;;;;;15.59;69.68;100913.44;4889533;29;10214;-69
2021/09/18 02:17:09;;;;;;;;;23.50;22.25;;;;;15.61;69.78;100918.66;4891049;29;10244;-69
2021/09/18 02:20:07;;;;;;;;;22.25;22.25;;;;;15.60;68.96;100917.03;4873598;29;10147;-69
2021/09/18 02:22:56;;;;;;;;;26.00;26.00;;;;;15.62;68.84;100909.94;4871759;29;10358;-69
2021/09/18 02:25:52;;;;;;;;;25.75;25.75;;;;;15.62;68.91;100904.38;4876185;29;10255;-69
2021/09/18 02:28:47;;;;;;;;;30.50;28.50;;;;;15.68;68.56;100913.28;4888115;29;10175;-69
2021/09/18 02:31:43;;;;;;;;;27.75;24.75;;;;;15.57;68.44;100913.00;4887147;29;10339;-69
2021/09/18 02:34:39;;;;;;;;;28.50;27.75;;;;;15.51;68.88;100900.50;4888353;29;10444;-69
2021/09/18 02:37:20;;;;;;;;;24.00;24.00;;;;;15.55;69.03;100902.19;4887269;29;10213;-69
2021/09/18 02:40:16;;;;;;;;;24.00;24.00;;;;;15.54;68.87;100899.75;4872818;29;10121;-69
2021/09/18 02:43:13;;;;;;;;;25.00;25.00;;;;;15.57;68.76;100901.84;4888455;29;10251;-69
2021/09/18 02:46:09;;;;;;;;;25.75;24.75;;;;;15.47;69.14;100902.38;4888491;29;10236;-69
2021/09/18 02:48:36;;;;;;;;;23.00;23.00;;;;;15.51;68.86;100903.28;4872095;29;10308;-68
2021/09/18 02:51:33;;;;;;;;;27.75;27.00;;;;;15.44;68.84;100901.13;4888697;29;10242;-69
2021/09/18 02:54:06;;;;;;;;;26.75;26.75;;;;;15.36;69.19;100901.28;4871681;29;10097;-69
2021/09/18 02:57:01;;;;;;;;;30.25;29.00;;;;;15.39;69.14;100906.13;4889047;29;10174;-70
2021/09/18 02:59:49;;;;;;;;;26.75;26.75;;;;;15.41;69.24;100910.19;4898210;29;10455;-69
2021/09/18 03:02:44;;;;;;;;;28.00;27.75;;;;;15.41;69.53;100912.16;4882914;29;10565;-69
2021/09/18 03:05:40;;;;;;;;;23.25;23.25;;;;;15.43;69.54;100901.47;4887407;29;10434;-68
2021/09/18 03:08:36;;;;;;;;;29.25;29.25;;;;;15.40;69.95;100904.97;4871189;29;10635;-69
2021/09/18 03:11:31;;;;;;;;;27.75;27.75;;;;;15.43;70.31;100904.25;4885571;29;10591;-69
2021/09/18 03:14:27;;;;;;;;;35.00;33.25;;;;;15.35;71.00;100903.28;4881732;29;10479;-68
2021/09/18 03:17:22;;;;;;;;;45.00;37.25;;;;;15.40;70.80;100908.56;4875371;29;10754;-69
2021/09/18 03:20:18;;;;;;;;;43.00;36.75;;;;;15.42;70.73;100906.25;4879656;29;11595;-69
2021/09/18 03:23:05;;;;;;;;;46.50;40.00;;;;;15.40;70.99;100908.56;4883659;29;11006;-69
2021/09/18 03:26:01;;;;;;;;;57.50;49.00;;;;;15.44;71.03;100912.25;4886320;29;11363;-69
2021/09/18 03:28:56;;;;;;;;;68.25;56.00;;;;;15.30;71.43;100906.31;4877732;29;11769;-69
2021/09/18 03:31:52;;;;;;;;;67.50;54.50;;;;;15.44;71.29;100905.88;4888834;29;11835;-70
2021/09/18 03:34:48;;;;;;;;;71.25;58.00;;;;;15.43;71.51;100912.63;4886406;29;11722;-69
2021/09/18 03:37:44;;;;;;;;;70.75;58.25;;;;;15.42;71.78;100908.22;4884189;29;11828;-69
2021/09/18 03:40:40;;;;;;;;;75.00;63.25;;;;;15.27;73.08;100907.03;4886725;29;11740;-69
2021/09/18 03:43:36;;;;;;;;;74.00;61.50;;;;;15.30;73.44;100901.53;4887853;29;11738;-70
2021/09/18 03:46:31;;;;;;;;;74.00;58.25;;;;;15.28;74.29;100906.66;4887745;29;11681;-69
2021/09/18 03:49:27;;;;;;;;;75.00;63.25;;;;;15.40;74.17;100908.56;4884823;29;11724;-70
2021/09/18 03:52:26;;;;;;;;;60.50;50.50;;;;;15.49;75.63;100905.63;4884385;29;11704;-72
2021/09/18 03:55:21;;;;;;;;;43.50;36.75;;;;;15.79;77.48;100911.56;4887249;29;11695;-71
2021/09/18 03:58:17;;;;;;;;;42.75;38.25;;;;;16.28;74.85;100908.34;4873121;29;11044;-70
2021/09/18 04:01:13;;;;;;;;;52.75;44.00;;;;;16.25;74.22;100909.88;4887190;29;11088;-71
2021/09/18 04:04:09;;;;;;;;;45.50;39.25;;;;;16.47;74.09;100907.56;4873254;29;11167;-71
2021/09/18 04:07:04;;;;;;;;;60.00;50.00;;;;;16.59;73.54;100915.81;4882239;29;11027;-70
2021/09/18 04:10:00;;;;;;;;;58.25;48.75;;;;;16.45;73.81;100918.28;4878557;29;11702;-70
2021/09/18 04:12:55;;;;;;;;;60.00;49.25;;;;;16.26;74.27;100922.66;4882488;29;11363;-70
2021/09/18 04:15:51;;;;;;;;;60.50;50.50;;;;;16.28;74.99;100927.88;4881363;29;11644;-70
2021/09/18 04:18:47;;;;;;;;;60.00;50.25;;;;;16.42;74.30;100938.56;4883584;29;12092;-71
2021/09/18 04:21:43;;;;;;;;;60.50;49.75;;;;;16.26;73.94;100928.25;4890838;29;11661;-70
2021/09/18 04:24:38;;;;;;;;;57.75;48.25;;;;;16.55;74.53;100923.28;4895060;29;11796;-70
2021/09/18 04:27:34;;;;;;;;;55.50;47.00;;;;;16.78;73.10;100926.19;4888759;29;11630;-70
2021/09/18 04:30:39;;;;;;;;;48.75;41.25;;;;;16.89;72.80;100921.66;4878336;29;11420;-70
2021/09/18 04:33:06;;;;;;;;;50.50;43.00;;;;;17.00;72.85;100911.50;4894882;29;11281;-72
2021/09/18 04:36:02;;;;;;;;;41.00;36.25;;;;;17.13;72.55;100915.75;4883000;29;11026;-70
2021/09/18 04:38:58;;;;;;;;;44.25;38.50;;;;;17.07;72.47;100911.63;4878735;29;11143;-70
2021/09/18 04:41:54;;;;;;;;;59.75;46.00;;;;;17.15;72.20;100913.38;4878754;29;11014;-70
2021/09/18 04:44:49;;;;;;;;;55.00;46.25;;;;;17.27;72.36;100909.63;4879017;29;11325;-71
2021/09/18 04:47:45;;;;;;;;;57.00;48.00;;;;;17.33;71.84;100919.31;4879012;29;11256;-70
2021/09/18 04:50:41;;;;;;;;;65.75;53.50;;;;;17.47;71.60;100910.38;4884014;29;11450;-71
2021/09/18 04:53:36;;;;;;;;;65.25;52.25;;;;;17.50;71.62;100912.44;4859861;29;11734;-71
2021/09/18 04:56:32;;;;;;;;;70.00;56.00;;;;;17.63;71.06;100918.63;4872726;29;11679;-71
2021/09/18 04:59:27;;;;;;;;;68.25;54.00;;;;;17.75;71.44;100910.09;4866761;29;11693;-71
2021/09/18 05:02:23;;;;;;;;;61.75;51.25;;;;;17.97;71.09;100914.84;4884649;29;11765;-70
2021/09/18 05:05:19;;;;;;;;;58.00;48.50;;;;;18.12;70.79;100913.09;4877435;29;11269;-70
2021/09/18 05:08:15;;;;;;;;;37.00;33.50;;;;;18.70;70.31;100911.91;4881030;29;11114;-71
2021/09/18 05:11:11;;;;;;;;;60.00;49.25;;;;;18.51;69.60;100918.44;4886507;29;9946;-71
2021/09/18 05:14:07;;;;;;;;;59.25;49.00;;;;;18.47;70.19;100914.75;4900502;29;10892;-70
2021/09/18 05:17:02;;;;;;;;;45.50;39.00;;;;;18.69;70.08;100910.28;4886511;29;11119;-71
2021/09/18 05:19:58;;;;;;;;;46.50;39.00;;;;;19.01;68.86;100905.88;4881685;29;10430;-71
2021/09/18 05:22:53;;;;;;;;;41.75;36.25;;;;;19.14;68.26;100898.00;4864317;29;10952;-72
2021/09/18 05:25:49;;;;;;;;;35.67;33.67;;;;;19.21;68.12;100902.88;4874075;29;9999;-72
2021/09/18 05:28:45;;;;;;;;;38.75;35.50;;;;;19.32;68.31;100906.59;4895920;29;9513;-72
2021/09/18 05:31:40;;;;;;;;;41.00;36.00;;;;;19.40;67.80;100914.72;4899914;29;9574;-72
2021/09/18 05:34:36;;;;;;;;;39.33;33.00;;;;;19.63;67.51;100919.34;4888350;29;9611;-72
2021/09/18 05:37:32;;;;;;;;;35.67;33.33;;;;;20.06;66.29;100920.50;4885466;29;9390;-72
2021/09/18 05:40:27;;;;;;;;;34.33;31.67;;;;;20.32;65.39;100915.84;4896702;29;9450;-72
2021/09/18 05:43:23;;;;;;;;;17.67;17.67;;;;;20.43;64.34;100920.34;4899896;29;9281;-72
2021/09/18 05:46:18;;;;;;;;;30.75;28.25;;;;;20.57;63.85;100921.66;4897968;29;8962;-72
2021/09/18 05:49:14;;;;;;;;;19.50;18.50;;;;;20.61;63.24;100920.47;4899778;29;8908;-72
2021/09/18 05:52:10;;;;;;;;;22.00;19.50;;;;;20.73;62.76;100922.94;4899572;29;8976;-72
2021/09/18 05:55:07;;;;;;;;;12.00;12.00;;;;;20.81;61.59;100916.16;4899510;29;8873;-73
2021/09/18 05:58:03;;;;;;;;;16.75;16.75;;;;;20.91;61.41;100899.72;4889408;29;8999;-72
2021/09/18 06:01:14;;;;;;;;;8.50;8.50;;;;;20.95;60.21;100906.16;4881197;29;8864;-73
2021/09/18 06:04:09;;;;;;;;;8.50;8.50;;;;;21.06;60.32;100904.19;4880675;29;8867;-73
2021/09/18 06:07:05;;;;;;;;;8.25;8.25;;;;;21.02;59.63;100903.38;4880869;29;8871;-72
2021/09/18 06:10:00;;;;;;;;;7.75;7.75;;;;;21.16;58.98;100894.97;4897989;29;8868;-73
2021/09/18 06:12:56;;;;;;;;;7.00;7.00;;;;;21.38;58.52;100895.84;4879191;29;8895;-72
2021/09/18 06:15:44;;;;;;;;;7.50;6.50;;;;;21.34;57.52;100898.66;4887556;29;8912;-72
2021/09/18 06:18:40;;;;;;;;;6.00;6.00;;;;;21.65;57.49;100891.44;4880426;29;8882;-72
2021/09/18 06:21:35;;;;;;;;;5.75;5.75;;;;;21.77;56.79;100887.41;4879612;29;8882;-72
2021/09/18 06:24:31;;;;;;;;;5.25;5.25;;;;;21.77;56.10;100895.84;4880422;29;8883;-72
2021/09/18 06:27:40;;;;;;;;;5.25;5.25;;;;;21.88;56.76;100893.84;4881039;29;8910;-72
2021/09/18 06:30:10;;;;;;;;;4.25;4.25;;;;;21.87;55.91;100892.25;4880845;29;8880;-71
2021/09/18 06:33:05;;;;;;;;;3.75;3.00;;;;;21.98;56.69;100886.59;4875498;29;8876;-72
2021/09/18 06:36:01;;;;;;;;;3.75;3.75;;;;;22.12;56.16;100888.63;4882596;29;8875;-71
2021/09/18 06:38:56;;;;;;;;;4.00;4.00;;;;;22.34;56.28;100883.75;4888289;29;8865;-72
2021/09/18 06:41:52;;;;;;;;;4.75;4.75;;;;;22.36;56.21;100889.78;4898645;29;9671;-72
2021/09/18 06:44:47;;;;;;;;;5.50;5.50;;;;;22.60;55.88;100890.91;4898807;29;8996;-72
2021/09/18 06:47:43;;;;;;;;;3.00;3.00;;;;;22.58;55.79;100893.34;4886101;29;8861;-72
2021/09/18 06:50:40;;;;;;;;;4.75;4.75;;;;;22.67;54.98;100882.44;4888366;29;8921;-72
2021/09/18 06:53:36;;;;;;;;;3.00;3.00;;;;;22.69;54.81;100880.00;4860614;29;8881;-72
2021/09/18 06:56:31;;;;;;;;;6.25;5.75;;;;;22.84;55.93;100889.19;4876566;29;8864;-73
2021/09/18 06:59:27;;;;;;;;;5.25;4.75;;;;;22.83;55.46;100884.78;4885736;29;8876;-73
2021/09/18 07:02:22;;;;;;;;;4.25;4.25;;;;;22.71;55.04;100878.38;4885333;29;8891;-73
2021/09/18 07:05:18;;;;;;;;;4.50;4.50;;;;;22.69;54.86;100877.16;4861046;29;8890;-71
2021/09/18 07:08:14;;;;;;;;;2.80;2.80;;;;;22.59;55.21;100878.84;4861060;29;8890;-73
2021/09/18 07:11:10;;;;;;;;;5.25;5.25;;;;;22.70;54.65;100870.34;4883403;29;9630;-72
2021/09/18 07:14:06;;;;;;;;;4.00;4.00;;;;;22.72;55.21;100882.00;4880457;29;8883;-73
2021/09/18 07:17:02;;;;;;;;;3.00;3.00;;;;;22.82;54.75;100881.16;4878483;29;8864;-73
2021/09/18 07:19:58;;;;;;;;;5.75;5.75;;;;;22.96;54.39;100872.66;4890964;29;9649;-73
2021/09/18 07:22:53;;;;;;;;;4.75;4.75;;;;;22.89;54.23;100867.03;4879798;29;8901;-72
2021/09/18 07:25:49;;;;;;;;;4.50;4.50;;;;;22.76;55.86;100868.69;4880144;29;8871;-72
2021/09/18 07:28:44;;;;;;;;;5.00;5.00;;;;;22.74;55.04;100862.66;4879767;29;8891;-72
2021/09/18 07:31:35;;;;;;;;;5.20;5.20;;;;;22.84;55.53;100852.53;4863345;29;8907;-73
2021/09/18 07:34:30;;;;;;;;;8.40;7.40;;;;;22.70;55.96;100859.06;4882247;29;8963;-72
2021/09/18 07:37:26;;;;;;;;;7.25;7.25;;;;;22.72;54.73;100848.97;4896460;29;8865;-73
2021/09/18 07:40:21;;;;;;;;;5.50;5.50;;;;;22.94;54.78;100846.88;4897685;29;8865;-73
2021/09/18 07:43:17;;;;;;;;;8.00;8.00;;;;;23.10;55.12;100842.75;4892140;29;8879;-72
2021/09/18 07:46:01;;;;;;;;;5.00;5.00;;;;;22.94;55.37;100835.59;4863226;29;8884;-73
2021/09/18 07:48:58;;;;;;;;;6.20;6.20;;;;;23.00;54.21;100833.97;4878888;29;8939;-73
2021/09/18 07:51:55;;;;;;;;;8.00;8.00;;;;;23.07;52.24;100832.28;4878758;29;8860;-73
2021/09/18 07:54:52;;;;;;;;;5.40;5.40;;;;;23.24;52.17;100826.53;4885143;29;8873;-72
2021/09/18 07:57:47;;;;;;;;;3.75;3.75;;;;;23.44;52.63;100823.16;4898250;29;8868;-72
2021/09/18 08:00:44;;;;;;;;;7.00;7.00;;;;;23.50;54.18;100822.28;4897326;29;8868;-72
2021/09/18 08:03:14;;;;;;;;;6.20;5.80;;;;;23.45;53.84;100825.53;4875766;29;8877;-72
2021/09/18 08:06:10;;;;;;;;;7.75;7.75;;;;;23.53;53.67;100820.66;4884724;29;8880;-73
2021/09/18 08:08:38;;;;;;;;;5.00;5.00;;;;;23.62;53.78;100811.72;4848530;29;9684;-72
2021/09/18 08:11:33;;;;;;;;;5.00;5.00;;;;;23.69;53.39;100814.47;4897199;29;8869;-72
2021/09/18 08:14:29;;;;;;;;;6.00;6.00;;;;;23.85;52.50;100818.38;4895667;29;8865;-72
2021/09/18 08:17:25;;;;;;;;;9.80;9.80;;;;;24.06;52.34;100808.06;4881490;29;8891;-71
2021/09/18 08:20:20;;;;;;;;;5.00;5.00;;;;;24.28;48.81;100803.75;4884541;29;8849;-73
2021/09/18 08:22:48;;;;;;;;;7.00;7.00;;;;;24.56;46.05;100804.66;4898029;29;8881;-72
2021/09/18 08:25:30;;;;;;;;;6.20;6.20;;;;;24.84;46.49;100800.63;4867816;29;8903;-73
2021/09/18 08:27:58;;;;;;;;;5.80;5.80;;;;;24.95;44.12;100801.28;4881588;29;8880;-72
2021/09/18 08:30:26;;;;;;;;;5.60;5.60;;;;;25.40;44.98;100803.84;4898129;29;8888;-73
2021/09/18 08:32:54;;;;;;;;;4.80;4.80;;;;;25.15;44.72;100805.06;4862534;29;8875;-72
2021/09/18 08:35:49;;;;;;;;;5.00;5.00;;;;;25.28;45.12;100805.22;4879564;29;9041;-72
2021/09/18 08:38:45;;;;;;;;;6.60;6.60;;;;;25.33;44.54;100804.75;4878926;29;8879;-72
2021/09/18 08:41:48;;;;;;;;;6.40;6.40;;;;;25.25;45.24;100791.16;4884928;29;8876;-73
2021/09/18 08:44:43;;;;;;;;;5.80;5.80;;;;;25.15;45.87;100804.22;4879783;29;8959;-72
2021/09/18 08:47:42;;;;;;;;;7.40;7.40;;;;;25.04;46.50;100795.13;4889469;29;8904;-72
2021/09/18 08:50:37;;;;;;;;;6.20;6.20;;;;;25.00;47.38;100792.31;4896885;29;8865;-71
2021/09/18 08:53:33;;;;;;;;;7.20;7.20;;;;;25.09;47.41;100798.25;4895240;29;8976;-72
2021/09/18 08:56:28;;;;;;;;;3.80;3.80;;;;;25.06;46.81;100796.28;4882731;29;9000;-71
2021/09/18 08:58:57;;;;;;;;;8.00;8.00;;;;;24.85;46.13;100790.94;4860602;29;8886;-71
2021/09/18 09:02:08;;;;;;;;;5.00;5.00;;;;;24.67;45.63;100802.47;4871026;29;8889;-72
2021/09/18 09:05:07;;;;;;;;;8.00;8.00;;;;;24.84;44.87;100787.28;4878144;29;8919;-71
2021/09/18 09:08:14;;;;;;;;;7.60;7.60;;;;;25.07;44.90;100788.59;4878017;29;8967;-71
2021/09/18 09:10:47;;;;;;;;;7.60;7.60;;;;;25.54;42.99;100783.78;4878913;29;8899;-72
2021/09/18 09:13:28;;;;;;;;;9.00;6.20;;;;;25.54;43.03;100785.81;4878658;29;8887;-71
2021/09/18 09:16:25;;;;;;;;;8.00;8.00;;;;;25.32;43.17;100780.50;4877785;29;8952;-72
2021/09/18 09:19:20;;;;;;;;;7.60;7.60;;;;;25.71;43.40;100773.34;4878094;29;8872;-72
2021/09/18 09:22:36;;;;;;;;;7.80;7.20;;;;;25.43;43.51;100769.78;4879380;29;8955;-71
2021/09/18 09:25:35;;;;;;;;;8.00;8.00;;;;;25.32;43.35;100776.88;4878946;29;8999;-71
2021/09/18 09:28:39;;;;;;;;;7.60;7.60;;;;;25.04;43.69;100775.31;4878671;29;8871;-72
2021/09/18 09:31:37;;;;;;;;;7.60;7.60;;;;;24.87;44.63;100777.97;4877754;29;9621;-72
2021/09/18 09:34:19;;;;;;;;;7.00;7.00;;;;;24.94;43.74;100783.50;5144771;27;1337189;-71
2021/09/18 09:37:16;;;;;;;;;6.00;6.00;;;;;24.92;43.77;100782.31;5154104;27;8847;-71
2021/09/18 09:40:12;;;;;;;;;7.60;7.20;;;;;24.67;44.25;100783.47;5151098;27;8827;-72
2021/09/18 09:43:10;;;;;;;;;5.00;5.00;;;;;24.58;44.82;100791.69;5148664;27;9639;-72
2021/09/18 09:46:11;;;;;;;;;5.00;5.00;;;;;24.61;45.25;100793.69;5157431;27;9017;-72
2021/09/18 09:49:14;;;;;;;;;5.60;5.60;;;;;24.28;45.02;100802.97;5157516;27;8837;-71
2021/09/18 09:52:18;;;;;;;;;6.80;6.80;;;;;24.42;45.51;100794.34;5172337;27;8904;-71
2021/09/18 09:55:15;;;;;;;;;14.60;14.20;;;;;24.33;45.55;100794.84;5171993;27;8952;-72
2021/09/18 09:58:12;;;;;;;;;24.25;22.25;;;;;24.54;46.17;100790.16;5158423;27;8833;-71
2021/09/18 10:01:07;;;;;;;;;6.80;6.80;;;;;24.52;44.98;100784.91;5171385;27;8828;-72
2021/09/18 10:04:03;;;;;;;;;13.75;13.75;;;;;24.42;46.87;100788.69;5172405;27;8825;-72
2021/09/18 10:06:36;;;;;;;;;12.60;11.60;;;;;24.55;46.02;100786.91;5172495;27;8867;-72
2021/09/18 10:09:04;;;;;;;;;7.40;7.40;;;;;24.56;46.30;100782.84;5153890;27;8867;-72
2021/09/18 10:11:34;;;;;;;;;4.80;4.80;;;;;24.28;46.62;100786.00;5153791;27;8928;-72
2021/09/18 10:14:03;;;;;;;;;6.60;6.60;;;;;24.22;47.66;100776.38;5172101;27;8841;-71
2021/09/18 10:16:32;;;;;;;;;7.00;5.80;;;;;24.44;47.01;100777.75;5151463;27;8835;-72
2021/09/18 10:19:05;;;;;;;;;7.80;7.80;;;;;24.31;46.19;100776.69;5151546;27;8862;-72
2021/09/18 10:24:19;;;;;;;;;6.20;6.20;;;;;24.30;47.07;100763.75;5151517;27;8858;-72
2021/09/18 10:27:13;;;;;;;;;5.60;5.60;;;;;24.37;47.07;100755.22;5152367;27;8896;-72
2021/09/18 10:30:29;;;;;;;;;5.60;5.60;;;;;24.57;46.87;100736.38;5151492;27;8839;-72
2021/09/18 10:33:40;;;;;;;;;7.00;7.00;;;;;24.76;46.19;100742.56;5150589;27;8854;-72
2021/09/18 10:36:40;;;;;;;;;4.60;4.60;;;;;24.71;45.77;100738.19;5146109;27;8855;-72
2021/09/18 10:39:36;;;;;;;;;7.20;7.20;;;;;25.20;46.27;100741.47;5170861;27;8817;-72
2021/09/18 10:42:42;;;;;;;;;7.80;7.40;;;;;25.92;43.25;100730.50;5168404;27;8832;-72
2021/09/18 10:45:40;;;;;;;;;4.80;4.80;;;;;26.63;42.96;100716.03;5137693;27;9638;-72
2021/09/18 10:48:39;;;;;;;;;7.20;5.60;;;;;27.19;40.48;100721.56;5137690;27;8819;-72
2021/09/18 10:51:38;;;;;;;;;5.80;5.80;;;;;27.60;38.62;100720.88;5145619;27;8815;-71
2021/09/18 10:54:34;;;;;;;;;4.20;4.20;;;;;27.41;37.08;100716.94;5130307;27;9688;-71
2021/09/18 10:57:39;;;;;;;;;10.00;6.00;;;;;27.09;37.87;100704.38;5135101;27;8870;-72
2021/09/18 11:00:41;;;;;;;;;3.20;3.20;;;;;26.80;39.00;100703.44;5152102;27;8859;-72
2021/09/18 11:03:46;;;;;;;;;5.60;5.60;;;;;26.60;39.23;100695.78;5148618;27;8831;-72
2021/09/18 11:06:42;;;;;;;;;2.80;2.80;;;;;26.70;38.00;100691.13;5135325;27;8828;-73
2021/09/18 11:09:48;;;;;;;;;4.60;4.60;;;;;27.37;37.80;100687.81;5135588;27;8819;-73
2021/09/18 11:12:37;;;;;;;;;6.80;6.00;;;;;27.69;37.61;100689.84;5127432;27;8855;-73
2021/09/18 11:15:36;;;;;;;;;5.60;5.60;;;;;28.15;36.37;100693.38;5142089;27;8947;-73
2021/09/18 11:18:39;;;;;;;;;3.60;3.60;;;;;28.25;36.43;100690.19;5125219;27;8827;-73
2021/09/18 11:21:40;;;;;;;;;4.40;4.40;;;;;28.29;36.49;100695.75;5134913;27;8835;-71
2021/09/18 11:24:36;;;;;;;;;4.60;4.60;;;;;27.72;37.37;100680.41;5132111;27;8885;-72
2021/09/18 11:27:33;;;;;;;;;3.80;3.80;;;;;27.60;38.63;100686.78;5121800;27;8815;-73
2021/09/18 11:30:52;;;;;;;;;4.60;4.60;;;;;27.37;37.91;100693.50;5147086;27;8829;-73
2021/09/18 11:33:49;;;;;;;;;4.00;4.00;;;;;26.92;37.23;100685.72;5155620;27;8987;-73
2021/09/18 11:36:45;;;;;;;;;2.00;2.00;;;;;26.77;36.47;100688.13;5155532;27;8840;-73
2021/09/18 11:39:43;;;;;;;;;3.80;3.80;;;;;26.24;37.22;100683.66;5154137;27;9585;-72
2021/09/18 11:42:41;;;;;;;;;3.20;3.20;;;;;26.31;36.84;100689.97;5155323;27;8829;-72
2021/09/18 11:45:39;;;;;;;;;5.00;5.00;;;;;26.49;35.34;100691.63;5155375;27;9628;-72
2021/09/18 11:48:35;;;;;;;;;6.20;6.20;;;;;26.71;33.88;100683.41;5152889;27;8829;-72
2021/09/18 11:51:22;;;;;;;;;5.00;5.00;;;;;26.96;33.79;100683.59;5135855;27;8862;-73
2021/09/18 11:54:22;;;;;;;;;4.40;4.40;;;;;26.63;34.49;100679.94;5134747;27;8835;-73
2021/09/18 11:57:18;;;;;;;;;5.00;4.00;;;;;26.64;34.65;100684.38;5119705;27;8811;-72
2021/09/18 12:00:16;;;;;;;;;4.60;4.60;;;;;26.61;35.58;100676.75;5135476;27;8912;-73
2021/09/18 12:03:12;;;;;;;;;5.20;5.20;;;;;26.53;35.25;100672.47;5134379;27;8831;-73
2021/09/18 12:06:12;;;;;;;;;3.80;3.80;;;;;26.37;35.22;100684.56;5134208;27;8839;-72
2021/09/18 12:08:43;;;;;;;;;3.80;3.80;;;;;26.17;35.66;100675.31;5135294;27;8846;-73
2021/09/18 12:11:13;;;;;;;;;1.20;1.20;;;;;25.92;35.57;100671.00;5138425;27;9573;-71
2021/09/18 12:13:47;;;;;;;;;3.20;3.20;;;;;26.19;35.15;100670.00;5127614;27;8828;-73
2021/09/18 12:16:17;;;;;;;;;3.00;2.80;;;;;26.15;34.22;100667.25;5137601;27;8825;-72
2021/09/18 12:19:20;;;;;;;;;2.60;2.00;;;;;26.11;34.43;100672.19;5133926;27;8851;-74
2021/09/18 12:21:59;;;;;;;;;3.40;3.40;;;;;26.05;35.36;100669.06;5134940;27;8839;-73
2021/09/18 12:24:55;;;;;;;;;2.80;2.80;;;;;25.91;35.46;100668.56;5139388;27;8917;-73
2021/09/18 12:27:59;;;;;;;;;4.40;4.40;;;;;25.62;35.78;100665.50;5140698;27;8837;-73
2021/09/18 12:30:55;;;;;;;;;3.80;3.80;;;;;26.02;36.96;100664.28;5140607;27;8921;-72
2021/09/18 12:33:51;;;;;;;;;3.00;3.00;;;;;26.25;36.67;100662.59;5146032;27;8831;-72
2021/09/18 12:36:34;;;;;;;;;2.20;2.20;;;;;26.10;38.16;100652.81;5122939;27;8832;-73
2021/09/18 12:39:34;;;;;;;;;3.00;3.00;;;;;26.10;38.49;100659.25;5133793;27;8847;-73
2021/09/18 12:42:30;;;;;;;;;1.80;1.80;;;;;26.01;38.06;100668.38;5118267;27;8823;-73
2021/09/18 12:45:27;;;;;;;;;3.00;3.00;;;;;26.03;38.25;100665.09;5134001;27;8834;-72
2021/09/18 12:48:24;;;;;;;;;3.00;3.00;;;;;25.94;37.96;100664.88;5133577;27;8815;-72
2021/09/18 12:51:20;;;;;;;;;2.80;2.80;;;;;25.94;38.35;100662.84;5133404;27;8974;-71
2021/09/18 12:54:18;;;;;;;;;3.20;3.20;;;;;25.76;37.20;100673.72;5133301;27;8827;-72
2021/09/18 12:57:07;;;;;;;;;4.00;4.00;;;;;25.94;37.42;100667.72;5134389;27;8831;-71
2021/09/18 13:00:10;;;;;;;;;1.20;1.20;;;;;25.59;38.10;100666.38;5143378;27;8805;-72
2021/09/18 13:03:12;;;;;;;;;4.00;4.00;;;;;25.56;37.88;100668.03;5154219;27;8833;-72
2021/09/18 13:06:11;;;;;;;;;3.00;3.00;;;;;25.50;38.44;100666.94;5153694;27;8841;-72
2021/09/18 13:08:51;;;;;;;;;2.80;2.80;;;;;25.48;38.71;100656.06;5154695;27;8825;-71
2021/09/18 13:11:25;;;;;;;;;3.60;3.60;;;;;25.51;38.99;100662.88;5150102;27;8843;-72
2021/09/18 13:14:32;;;;;;;;;3.80;3.80;;;;;25.33;38.74;100654.72;5139602;27;8827;-72
2021/09/18 13:17:29;;;;;;;;;5.20;5.20;;;;;25.15;40.39;100660.72;5139191;27;8824;-71
2021/09/18 13:20:31;;;;;;;;;3.00;3.00;;;;;25.20;41.21;100668.69;5122271;27;8857;-71
2021/09/18 13:23:18;;;;;;;;;3.60;3.60;;;;;25.18;42.06;100674.00;5134285;27;8871;-71
2021/09/18 13:26:13;;;;;;;;;5.60;5.60;;;;;25.08;42.40;100666.50;5133051;27;8874;-71
2021/09/18 13:29:10;;;;;;;;;3.40;3.40;;;;;25.01;42.60;100657.31;5119610;27;8890;-74
2021/09/18 13:32:06;;;;;;;;;3.20;3.20;;;;;24.98;42.43;100658.97;5132833;27;8819;-73